createdAt,value
2018-06-12T00:00:07.756Z,59.18
2018-06-12T00:02:36.066Z,59.50
2018-06-12T00:05:04.773Z,59.57
2018-06-12T00:07:33.086Z,60.18
2018-06-12T00:10:01.353Z,60.13
2018-06-12T00:12:29.672Z,60.33
2018-06-12T00:14:57.953Z,59.63
2018-06-12T00:17:26.333Z,59.71
2018-06-12T00:19:54.650Z,60.28
2018-06-12T00:22:22.925Z,60.47
2018-06-12T00:24:52.341Z,61.12
2018-06-12T00:27:20.632Z,60.86
2018-06-12T00:29:48.941Z,60.63
2018-06-12T00:32:17.221Z,61.00
2018-06-12T00:34:45.541Z,60.37
2018-06-12T00:37:13.847Z,60.21
2018-06-12T00:39:42.153Z,60.89
2018-06-12T00:42:11.538Z,60.60
2018-06-12T00:44:39.849Z,60.46
2018-06-12T00:47:08.275Z,60.38
2018-06-12T00:49:36.577Z,60.88
2018-06-12T00:52:04.865Z,61.22
2018-06-12T00:54:35.254Z,61.76
2018-06-12T00:57:07.843Z,61.15
2018-06-12T00:59:36.165Z,61.16
2018-06-12T01:02:04.945Z,60.79
2018-06-12T01:04:33.257Z,60.68
2018-06-12T01:07:01.561Z,60.98
2018-06-12T01:09:29.892Z,62.10
2018-06-12T01:11:58.210Z,60.82
2018-06-12T01:14:27.517Z,60.48
2018-06-12T01:16:55.825Z,60.82
2018-06-12T01:19:25.205Z,61.56
2018-06-12T01:21:53.905Z,61.63
2018-06-12T01:24:22.217Z,61.18
2018-06-12T01:26:50.535Z,61.77
2018-06-12T01:29:19.178Z,61.93
2018-06-12T01:31:47.498Z,62.23
2018-06-12T01:34:15.778Z,61.98
2018-06-12T01:36:44.105Z,62.44
2018-06-12T01:39:12.398Z,62.27
2018-06-12T01:41:40.688Z,61.97
2018-06-12T01:44:08.957Z,61.00
2018-06-12T01:46:37.259Z,61.60
2018-06-12T01:49:05.564Z,62.02
2018-06-12T01:51:33.862Z,61.55
2018-06-12T01:54:02.137Z,62.03
2018-06-12T01:56:30.437Z,62.72
2018-06-12T01:58:58.773Z,63.42
2018-06-12T02:01:27.153Z,62.70
2018-06-12T02:03:55.448Z,63.09
2018-06-12T02:06:23.788Z,62.78
2018-06-12T02:08:52.109Z,63.11
2018-06-12T02:11:20.439Z,63.09
2018-06-12T02:13:48.766Z,63.10
2018-06-12T02:16:17.117Z,63.58
2018-06-12T02:18:45.447Z,63.29
2018-06-12T02:21:13.793Z,62.74
2018-06-12T02:23:42.149Z,63.03
2018-06-12T02:26:10.457Z,63.12
2018-06-12T02:28:38.763Z,63.59
2018-06-12T02:31:07.107Z,63.60
2018-06-12T02:33:35.409Z,63.49
2018-06-12T02:36:03.689Z,64.06
2018-06-12T02:38:32.376Z,64.12
2018-06-12T02:41:00.659Z,63.95
2018-06-12T02:43:28.938Z,64.38
2018-06-12T02:45:57.245Z,63.69
2018-06-12T02:48:25.514Z,63.22
2018-06-12T02:50:53.832Z,63.20
2018-06-12T02:53:23.162Z,63.65
2018-06-12T02:55:51.465Z,63.73
2018-06-12T02:58:19.739Z,64.25
2018-06-12T03:00:48.053Z,63.80
2018-06-12T03:03:16.373Z,63.69
2018-06-12T03:05:44.689Z,63.66
2018-06-12T03:08:13.000Z,63.92
2018-06-12T03:10:41.309Z,63.47
2018-06-12T03:13:11.645Z,63.87
2018-06-12T03:15:39.991Z,63.58
2018-06-12T03:18:08.699Z,63.67
2018-06-12T03:20:46.537Z,62.98
2018-06-12T03:23:14.843Z,62.38
2018-06-12T03:25:43.216Z,62.87
2018-06-12T03:28:11.508Z,63.43
2018-06-12T03:30:39.854Z,63.20
2018-06-12T03:33:08.202Z,63.04
2018-06-12T03:35:36.489Z,63.48
2018-06-12T03:38:04.803Z,63.48
2018-06-12T03:40:33.109Z,62.24
2018-06-12T03:43:01.662Z,62.39
2018-06-12T03:45:31.982Z,62.06
2018-06-12T03:48:00.273Z,61.34
2018-06-12T03:50:29.557Z,61.22
2018-06-12T03:52:57.877Z,60.85
2018-06-12T03:55:28.170Z,61.05
2018-06-12T03:58:00.585Z,61.47
2018-06-12T04:00:29.976Z,61.03
2018-06-12T04:02:58.262Z,61.79
2018-06-12T04:05:26.581Z,62.48
2018-06-12T04:07:54.913Z,62.02
2018-06-12T04:10:23.185Z,62.05
2018-06-12T04:12:55.393Z,62.17
2018-06-12T04:15:23.680Z,60.50
2018-06-12T04:17:52.005Z,59.57
2018-06-12T04:20:21.293Z,60.35
2018-06-12T04:22:49.565Z,59.91
2018-06-12T04:25:17.915Z,60.64
2018-06-12T04:27:46.201Z,59.71
2018-06-12T04:30:15.593Z,58.89
2018-06-12T04:32:43.857Z,59.70
2018-06-12T04:35:12.169Z,59.94
2018-06-12T04:37:40.441Z,59.83
2018-06-12T04:40:08.753Z,59.47
2018-06-12T04:42:38.121Z,58.66
2018-06-12T04:45:06.429Z,59.17
2018-06-12T04:47:34.718Z,58.97
2018-06-12T04:50:04.149Z,59.66
2018-06-12T04:52:32.439Z,60.26
2018-06-12T04:55:00.909Z,59.73
2018-06-12T04:57:29.178Z,59.63
2018-06-12T04:59:58.639Z,59.41
2018-06-12T05:02:26.929Z,59.85
2018-06-12T05:04:55.201Z,59.08
2018-06-12T05:07:23.506Z,58.55
2018-06-12T05:09:51.889Z,59.40
2018-06-12T05:12:20.196Z,59.73
2018-06-12T05:14:49.467Z,58.93
2018-06-12T05:17:17.766Z,59.88
2018-06-12T05:19:46.037Z,59.28
2018-06-12T05:22:15.329Z,58.83
2018-06-12T05:24:43.641Z,58.72
2018-06-12T05:27:11.950Z,59.31
2018-06-12T05:29:40.217Z,60.02
2018-06-12T05:32:08.526Z,60.30
2018-06-12T05:34:37.801Z,60.09
2018-06-12T05:37:06.118Z,60.00
2018-06-12T05:39:34.397Z,59.43
2018-06-12T05:42:02.703Z,60.27
2018-06-12T05:44:30.986Z,60.81
2018-06-12T05:46:59.289Z,60.25
2018-06-12T05:49:28.644Z,59.08
2018-06-12T05:51:56.982Z,58.69
2018-06-12T05:54:25.245Z,58.41
2018-06-12T05:56:53.524Z,59.87
2018-06-12T05:59:21.820Z,60.08
2018-06-12T06:01:52.353Z,59.47
2018-06-12T06:04:21.689Z,59.61
2018-06-12T06:06:50.073Z,60.16
2018-06-12T06:09:18.477Z,59.50
2018-06-12T06:11:46.802Z,59.30
2018-06-12T06:14:15.121Z,58.95
2018-06-12T06:16:43.475Z,58.48
2018-06-12T06:19:11.941Z,59.23
2018-06-12T06:21:40.328Z,58.04
2018-06-12T06:24:09.668Z,57.60
2018-06-12T06:26:41.073Z,58.34
2018-06-12T06:29:12.965Z,57.63
2018-06-12T06:31:41.333Z,57.37
2018-06-12T06:52:28.997Z,60.79
2018-06-12T06:54:59.699Z,59.54
2018-06-12T06:57:33.459Z,58.25
2018-06-12T07:00:04.686Z,58.28
2018-06-12T07:02:39.126Z,57.35
2018-06-12T07:05:07.731Z,57.48
2018-06-12T07:07:36.029Z,57.01
2018-06-12T07:10:05.325Z,57.00
2018-06-12T07:12:33.736Z,55.36
2018-06-12T07:18:10.965Z,55.73
2018-06-12T07:21:20.609Z,55.51
2018-06-12T07:23:48.911Z,55.66
2018-06-12T07:26:17.313Z,56.00
2018-06-12T07:28:45.590Z,55.63
2018-06-12T07:31:13.860Z,56.22
2018-06-12T07:33:42.269Z,56.03
2018-06-12T07:36:10.529Z,56.88
2018-06-12T07:38:38.826Z,54.47
2018-06-12T07:41:07.085Z,54.52
2018-06-12T07:43:35.483Z,55.59
2018-06-12T07:46:04.937Z,54.10
2018-06-12T07:48:33.253Z,55.30
2018-06-12T07:51:01.599Z,55.02
2018-06-12T07:53:29.885Z,55.52
2018-06-12T07:55:58.246Z,53.09
2018-06-12T07:58:26.548Z,53.82
2018-06-12T08:00:54.929Z,54.82
2018-06-12T08:03:23.312Z,54.63
2018-06-12T08:05:51.703Z,54.35
2018-06-12T08:08:22.099Z,52.52
2018-06-12T08:10:50.493Z,51.38
2018-06-12T08:13:18.842Z,52.24
2018-06-12T08:15:47.116Z,51.44
2018-06-12T08:18:15.364Z,49.28
2018-06-12T08:20:44.725Z,51.65
2018-06-12T08:23:12.973Z,53.89
2018-06-12T08:25:41.284Z,52.87
2018-06-12T08:32:59.508Z,51.73
2018-06-12T08:35:27.798Z,50.96
2018-06-12T08:37:56.070Z,51.08
2018-06-12T08:40:24.389Z,52.88
2018-06-12T08:42:52.637Z,53.40
2018-06-12T08:45:20.890Z,53.58
2018-06-12T08:47:49.165Z,53.64
2018-06-12T08:50:17.417Z,54.19
2018-06-12T08:52:45.749Z,53.57
2018-06-12T08:55:15.067Z,53.11
2018-06-12T08:57:43.347Z,52.82
2018-06-12T09:00:11.685Z,53.10
2018-06-12T09:02:40.029Z,52.86
2018-06-12T09:05:08.277Z,52.24
2018-06-12T09:07:36.621Z,52.32
2018-06-12T09:10:04.992Z,52.53
2018-06-12T09:12:33.277Z,53.06
2018-06-12T09:15:01.543Z,51.99
2018-06-12T09:17:30.865Z,52.40
2018-06-12T09:19:59.216Z,51.31
2018-06-12T09:22:27.500Z,50.95
2018-06-12T09:24:55.821Z,50.35
2018-06-12T09:27:24.153Z,51.13
2018-06-12T09:29:53.442Z,52.60
2018-06-12T09:32:21.693Z,51.83
2018-06-12T09:34:51.149Z,50.95
2018-06-12T09:37:19.430Z,50.89
2018-06-12T09:39:47.745Z,49.90
2018-06-12T09:42:16.042Z,49.09
2018-06-12T09:44:44.458Z,51.99
2018-06-12T09:47:12.717Z,51.00
2018-06-12T09:49:41.030Z,51.48
2018-06-12T09:52:09.298Z,53.75
2018-06-12T09:54:37.598Z,53.55
2018-06-12T09:57:06.057Z,53.74
2018-06-12T09:59:34.379Z,54.61
2018-06-12T10:02:02.665Z,54.14
2018-06-12T10:04:31.997Z,55.62
2018-06-12T10:07:00.289Z,55.03
2018-06-12T10:09:28.598Z,53.80
2018-06-12T10:11:56.888Z,54.87
2018-06-12T10:14:25.197Z,54.65
2018-06-12T10:16:53.457Z,54.02
2018-06-12T10:19:21.753Z,54.79
2018-06-12T10:21:50.093Z,55.83
2018-06-12T10:24:19.445Z,56.66
2018-06-12T10:26:48.824Z,55.43
2018-06-12T10:29:17.246Z,52.37
2018-06-12T10:31:46.640Z,52.56
2018-06-12T10:34:14.904Z,53.23
2018-06-12T10:36:43.193Z,52.53
2018-06-12T10:39:11.496Z,53.42
2018-06-12T10:41:39.823Z,53.68
2018-06-12T10:44:09.102Z,53.17
2018-06-12T10:46:37.510Z,52.49
2018-06-12T10:49:06.048Z,52.86
2018-06-12T10:51:34.362Z,51.76
2018-06-12T10:54:02.736Z,51.59
2018-06-12T10:56:31.089Z,51.26
2018-06-12T10:58:59.317Z,51.44
2018-06-12T11:01:27.624Z,49.50
2018-06-12T11:03:55.884Z,49.64
2018-06-12T11:06:24.617Z,51.03
2018-06-12T11:08:52.905Z,51.87
2018-06-12T11:11:21.217Z,53.52
2018-06-12T11:13:49.657Z,52.24
2018-06-12T11:16:18.020Z,51.51
2018-06-12T11:18:46.301Z,49.86
2018-06-12T11:21:15.549Z,47.84
2018-06-12T11:23:43.841Z,48.69
2018-06-12T11:26:12.258Z,48.73
2018-06-12T11:28:40.574Z,50.49
2018-06-12T11:31:08.901Z,51.36
2018-06-12T11:33:37.246Z,53.52
2018-06-12T11:36:05.517Z,54.22
2018-06-12T11:38:33.821Z,53.70
2018-06-12T11:41:02.109Z,52.00
2018-06-12T11:43:30.406Z,51.21
2018-06-12T11:45:58.686Z,50.72
2018-06-12T11:48:26.981Z,49.15
2018-06-12T11:50:56.438Z,46.76
2018-06-12T11:53:24.713Z,44.82
2018-06-12T11:55:52.997Z,46.00
2018-06-12T11:58:21.317Z,46.69
2018-06-12T12:00:49.609Z,48.76
2018-06-12T12:03:17.890Z,47.97
2018-06-12T12:05:46.197Z,48.12
2018-06-12T12:08:14.465Z,47.91
2018-06-12T12:10:42.811Z,47.10
2018-06-12T12:13:11.138Z,44.15
2018-06-12T12:15:40.460Z,41.69
2018-06-12T12:18:09.941Z,42.39
2018-06-12T12:20:38.253Z,44.29
2018-06-12T12:23:06.522Z,45.01
2018-06-12T12:25:35.913Z,45.36
2018-06-12T12:28:04.253Z,45.54
2018-06-12T12:30:32.541Z,45.91
2018-06-12T12:33:00.813Z,47.75
2018-06-12T12:35:29.129Z,50.09
2018-06-12T12:37:57.557Z,49.84
2018-06-12T12:40:25.909Z,50.62
2018-06-12T12:42:54.231Z,49.34
2018-06-12T12:45:22.510Z,48.81
2018-06-12T12:47:50.821Z,50.31
2018-06-12T12:50:19.155Z,49.15
2018-06-12T12:52:47.469Z,47.89
2018-06-12T12:55:15.837Z,46.94
2018-06-12T12:57:44.221Z,45.94
2018-06-12T13:00:12.582Z,43.79
2018-06-12T13:02:41.985Z,45.00
2018-06-12T13:05:10.361Z,45.12
2018-06-12T13:07:38.777Z,46.48
2018-06-12T13:10:07.122Z,48.17
2018-06-12T13:12:35.409Z,48.18
2018-06-12T13:15:03.789Z,49.83
2018-06-12T13:17:32.207Z,49.76
2018-06-12T13:20:00.622Z,51.71
2018-06-12T13:22:28.917Z,50.85
2018-06-12T13:24:57.308Z,51.47
2018-06-12T13:27:25.689Z,50.48
2018-06-12T13:29:54.045Z,50.09
2018-06-12T13:32:22.324Z,50.66
2018-06-12T13:34:50.650Z,48.13
2018-06-12T13:37:19.990Z,47.90
2018-06-12T13:39:48.394Z,48.22
2018-06-12T13:42:16.833Z,48.48
2018-06-12T13:44:49.591Z,48.77
2018-06-12T13:47:17.921Z,50.19
2018-06-12T13:49:47.252Z,51.27
2018-06-12T13:52:15.584Z,54.10
2018-06-12T13:54:45.989Z,54.95
2018-06-12T13:57:14.321Z,52.87
2018-06-12T13:59:42.687Z,51.91
2018-06-12T14:02:11.981Z,51.08
2018-06-12T14:04:40.325Z,49.91
2018-06-12T14:07:08.715Z,48.87
2018-06-12T14:09:37.023Z,46.27
2018-06-12T14:12:05.381Z,46.65
2018-06-12T14:14:35.097Z,47.84
2018-06-12T14:17:03.466Z,49.10
2018-06-12T14:19:31.858Z,49.49
2018-06-12T14:22:00.305Z,48.93
2018-06-12T14:24:28.609Z,50.46
2018-06-12T14:26:57.962Z,51.59
2018-06-12T14:29:26.218Z,51.03
2018-06-12T14:31:54.595Z,51.40
2018-06-12T14:34:22.954Z,50.98
2018-06-12T14:36:51.369Z,51.96
2018-06-12T14:39:19.706Z,51.50
2018-06-12T14:41:49.047Z,51.90
2018-06-12T14:44:17.413Z,51.60
2018-06-12T14:46:46.814Z,51.59
2018-06-12T14:49:15.102Z,51.69
2018-06-12T14:51:43.462Z,51.94
2018-06-12T14:54:11.817Z,51.15
2018-06-12T14:56:40.217Z,50.20
2018-06-12T14:59:08.591Z,51.24
2018-06-12T15:01:36.880Z,51.43
2018-06-12T15:04:05.301Z,52.24
2018-06-12T15:06:33.628Z,52.82
2018-06-12T15:09:01.984Z,54.78
2018-06-12T15:11:31.345Z,54.65
2018-06-12T15:13:59.648Z,55.22
2018-06-12T15:16:27.933Z,55.58
2018-06-12T15:18:57.323Z,55.89
2018-06-12T15:21:25.538Z,54.83
2018-06-12T15:23:53.820Z,55.23
2018-06-12T15:26:23.162Z,53.12
2018-06-12T15:28:51.457Z,53.48
2018-06-12T15:31:19.711Z,53.66
2018-06-12T15:33:48.049Z,54.95
2018-06-12T15:36:16.386Z,55.19
2018-06-12T15:43:34.559Z,53.10
2018-06-12T15:46:02.820Z,53.90
2018-06-12T15:48:31.138Z,54.49
2018-06-12T15:50:59.509Z,54.39
2018-06-12T15:53:37.773Z,54.21
2018-06-12T15:56:06.147Z,54.73
2018-06-12T15:58:34.364Z,54.33
2018-06-12T16:01:02.656Z,53.79
2018-06-12T16:03:32.990Z,52.95
2018-06-12T16:06:01.295Z,52.14
2018-06-12T16:08:29.576Z,54.35
2018-06-12T16:10:57.858Z,55.42
2018-06-12T16:13:26.146Z,54.98
2018-06-12T16:15:54.426Z,55.57
2018-06-12T16:18:22.691Z,55.04
2018-06-12T16:20:52.061Z,55.90
2018-06-12T16:23:20.309Z,55.24
2018-06-12T16:25:48.625Z,55.61
2018-06-12T16:28:17.957Z,55.03
2018-06-12T16:30:47.381Z,54.77
2018-06-12T16:33:15.856Z,55.51
2018-06-12T16:35:44.141Z,55.98
2018-06-12T16:38:12.406Z,56.15
2018-06-12T16:40:40.677Z,56.50
2018-06-12T16:43:08.951Z,56.07
2018-06-12T16:45:37.234Z,57.52
2018-06-12T16:48:05.940Z,58.05
2018-06-12T16:50:34.210Z,56.41
2018-06-12T16:53:03.527Z,56.44
2018-06-12T16:55:31.774Z,57.82
2018-06-12T16:58:00.077Z,57.82
2018-06-12T17:00:28.410Z,58.85
2018-06-12T17:02:56.705Z,60.76
2018-06-12T17:05:24.981Z,60.63
2018-06-12T17:07:54.385Z,59.75
2018-06-12T17:10:22.666Z,58.92
2018-06-12T17:12:51.001Z,59.70
2018-06-12T17:15:19.360Z,59.29
2018-06-12T17:17:48.717Z,59.37
2018-06-12T17:20:16.996Z,60.07
2018-06-12T17:22:45.251Z,59.12
2018-06-12T17:25:13.565Z,59.91
2018-06-12T17:27:43.889Z,60.07
2018-06-12T17:30:12.265Z,61.26
2018-06-12T17:32:40.541Z,60.41
2018-06-12T17:35:08.841Z,60.23
2018-06-12T17:37:37.133Z,60.09
2018-06-12T17:40:05.467Z,60.22
2018-06-12T17:42:33.749Z,61.17
2018-06-12T17:45:02.058Z,60.46
2018-06-12T17:47:30.337Z,59.49
2018-06-12T17:49:58.632Z,59.00
2018-06-12T17:52:26.905Z,58.82
2018-06-12T17:54:55.220Z,58.96
2018-06-12T17:57:23.481Z,58.41
2018-06-12T17:59:51.786Z,57.83
2018-06-12T18:02:20.134Z,59.05
2018-06-12T18:04:48.425Z,59.87
2018-06-12T18:07:16.822Z,59.59
2018-06-12T18:09:45.164Z,60.72
2018-06-12T18:12:13.467Z,61.45
2018-06-12T18:14:41.827Z,62.07
2018-06-12T18:17:10.241Z,61.73
2018-06-12T18:19:38.589Z,61.68
2018-06-12T18:22:06.925Z,61.15
2018-06-12T18:24:35.236Z,60.35
2018-06-12T18:27:03.649Z,60.82
2018-06-12T18:29:33.013Z,60.74
2018-06-12T18:32:01.331Z,62.15
2018-06-12T18:34:29.601Z,61.82
2018-06-12T18:36:58.873Z,60.89
2018-06-12T18:39:27.153Z,61.96
2018-06-12T18:41:55.507Z,62.18
2018-06-12T18:44:25.879Z,62.04
2018-06-12T18:46:54.214Z,61.79
2018-06-12T18:49:22.496Z,62.69
2018-06-12T18:51:50.764Z,62.41
2018-06-12T18:54:19.062Z,62.64
2018-06-12T18:56:47.414Z,63.47
2018-06-12T18:59:15.809Z,64.94
2018-06-12T19:01:45.099Z,65.96
2018-06-12T19:04:15.451Z,66.79
2018-06-12T19:06:43.891Z,68.07
2018-06-12T19:09:12.124Z,68.56
2018-06-12T19:11:40.501Z,69.12
2018-06-12T19:14:08.863Z,68.45
2018-06-12T19:16:37.249Z,68.97
2018-06-12T19:19:05.961Z,68.93
2018-06-12T19:21:35.289Z,68.49
2018-06-12T19:24:03.549Z,67.75
2018-06-12T19:26:31.897Z,67.32
2018-06-12T19:29:00.117Z,67.14
2018-06-12T19:31:28.433Z,67.50
2018-06-12T19:33:56.690Z,67.25
2018-06-12T19:36:25.013Z,68.69
2018-06-12T19:38:53.329Z,69.27
2018-06-12T19:41:21.654Z,69.82
2018-06-12T19:43:49.990Z,70.38
2018-06-12T19:46:18.286Z,69.28
2018-06-12T19:48:46.579Z,70.10
2018-06-12T19:51:14.894Z,69.42
2018-06-12T19:53:43.222Z,69.48
2018-06-12T19:56:12.553Z,69.11
2018-06-12T19:58:40.807Z,68.62
2018-06-12T20:01:09.181Z,68.08
2018-06-12T20:03:37.595Z,69.25
2018-06-12T20:06:06.954Z,69.22
2018-06-12T20:08:35.349Z,69.19
2018-06-12T20:11:04.624Z,68.69
2018-06-12T20:13:33.053Z,69.08
2018-06-12T20:16:01.461Z,69.41
2018-06-12T20:18:29.781Z,69.89
2018-06-12T20:20:58.130Z,69.26
2018-06-12T20:23:26.421Z,69.96
2018-06-12T20:26:58.104Z,70.47
2018-06-12T20:29:26.490Z,70.78
2018-06-12T20:31:54.821Z,71.22
2018-06-12T20:34:23.109Z,71.71
2018-06-12T20:36:52.412Z,71.32
2018-06-12T20:39:20.744Z,71.89
2018-06-12T20:41:49.065Z,71.99
2018-06-12T20:44:17.376Z,71.45
2018-06-12T20:46:45.761Z,70.50
2018-06-12T20:49:14.008Z,69.84
2018-06-12T20:51:42.353Z,70.25
2018-06-12T20:54:10.787Z,71.03
2018-06-12T20:56:39.065Z,71.82
2018-06-12T20:59:09.537Z,70.99
2018-06-12T21:01:37.927Z,71.30
2018-06-12T21:04:06.498Z,71.81
2018-06-12T21:06:34.833Z,70.83
2018-06-12T21:09:03.579Z,70.59
2018-06-12T21:11:32.054Z,72.52
2018-06-12T21:14:00.481Z,72.15
2018-06-12T21:16:29.889Z,72.49
2018-06-12T21:18:58.220Z,72.85
2018-06-12T21:21:27.533Z,73.19
2018-06-12T21:23:55.880Z,73.95
2018-06-12T21:26:24.221Z,73.76
2018-06-12T21:28:52.543Z,73.89
2018-06-12T21:31:20.933Z,73.43
2018-06-12T21:33:49.381Z,74.35
2018-06-12T21:36:17.709Z,74.63
2018-06-12T21:38:46.139Z,74.50
2018-06-12T21:41:14.505Z,75.03
2018-06-12T21:43:42.862Z,75.01
2018-06-12T21:46:11.094Z,75.73
2018-06-12T21:48:39.431Z,75.70
2018-06-12T21:51:07.716Z,75.49
2018-06-12T21:53:36.049Z,75.08
2018-06-12T21:56:04.402Z,75.56
2018-06-12T21:58:32.777Z,75.04
2018-06-12T22:01:01.161Z,76.04
2018-06-12T22:03:29.497Z,76.65
2018-06-12T22:05:57.773Z,77.13
2018-06-12T22:08:26.073Z,77.45
2018-06-12T22:10:54.351Z,77.82
2018-06-12T22:13:22.634Z,77.80
2018-06-12T22:15:50.921Z,77.89
2018-06-12T22:18:19.234Z,78.24
2018-06-12T22:20:47.497Z,78.14
2018-06-12T22:23:15.758Z,79.08
2018-06-12T22:25:44.041Z,79.37
2018-06-12T22:28:12.338Z,79.63
2018-06-12T22:30:40.634Z,79.60
2018-06-12T22:33:09.084Z,80.03
2018-06-12T22:35:37.365Z,81.31
2018-06-12T22:38:05.640Z,81.66
2018-06-12T22:40:33.941Z,81.79
2018-06-12T22:43:02.222Z,81.76
2018-06-12T22:45:30.520Z,81.74
2018-06-12T22:48:05.261Z,81.65
2018-06-12T22:50:33.618Z,82.94
2018-06-12T22:53:01.885Z,83.38
2018-06-12T22:55:30.306Z,83.79
2018-06-12T22:57:59.165Z,83.73
2018-06-12T23:00:27.465Z,83.82
2018-06-12T23:02:55.737Z,84.02
2018-06-12T23:05:24.056Z,83.66
2018-06-12T23:07:54.221Z,84.15
2018-06-12T23:10:26.504Z,84.62
2018-06-12T23:12:54.778Z,84.33
2018-06-12T23:15:23.115Z,86.01
2018-06-12T23:17:51.425Z,86.45
2018-06-12T23:20:31.029Z,85.74
2018-06-12T23:22:59.390Z,85.41
2018-06-12T23:25:28.781Z,85.58
2018-06-12T23:27:57.151Z,86.04
2018-06-12T23:30:26.447Z,86.17
2018-06-12T23:32:54.807Z,86.44
2018-06-12T23:35:23.099Z,85.75
2018-06-12T23:37:51.425Z,86.48
2018-06-12T23:40:20.084Z,87.52
2018-06-12T23:42:48.396Z,87.35
2018-06-12T23:45:17.773Z,86.64
2018-06-12T23:47:46.105Z,86.27
2018-06-12T23:50:15.406Z,86.75
2018-06-12T23:52:43.781Z,86.68
2018-06-12T23:55:13.146Z,86.02
2018-06-12T23:57:41.519Z,86.79
